createdAt,value
2018-04-25T00:01:02.358Z,4
2018-04-25T00:02:12.091Z,4
2018-04-25T00:03:21.832Z,4
2018-04-25T00:04:31.571Z,4
2018-04-25T00:05:41.304Z,4
2018-04-25T00:06:51.300Z,4
2018-04-25T00:08:01.033Z,4
2018-04-25T00:09:10.766Z,4
2018-04-25T00:10:20.772Z,4
2018-04-25T00:11:30.523Z,4
2018-04-25T00:12:40.522Z,4
2018-04-25T00:13:50.518Z,4
2018-04-25T00:15:00.254Z,4
2018-04-25T00:16:10.157Z,4
2018-04-25T00:17:19.883Z,4
2018-04-25T00:18:29.082Z,4
2018-04-25T00:19:38.611Z,4
2018-04-25T00:20:48.612Z,4
2018-04-25T00:21:58.376Z,4
2018-04-25T00:23:08.370Z,4
2018-04-25T00:24:17.918Z,4
2018-04-25T00:25:27.398Z,4
2018-04-25T00:26:36.875Z,4
2018-04-25T00:27:46.606Z,4
2018-04-25T00:28:56.350Z,4
2018-04-25T00:30:06.362Z,4
2018-04-25T00:31:15.835Z,4
2018-04-25T00:32:25.584Z,4
2018-04-25T00:33:35.320Z,4
2018-04-25T00:34:45.057Z,4
2018-04-25T00:35:55.058Z,4
2018-04-25T00:37:05.078Z,4
2018-04-25T00:38:14.551Z,4
2018-04-25T00:39:24.287Z,4
2018-04-25T00:40:33.749Z,4
2018-04-25T00:41:43.218Z,4
2018-04-25T00:42:53.213Z,4
2018-04-25T00:44:02.698Z,4
2018-04-25T00:45:12.431Z,4
2018-04-25T00:46:21.660Z,4
2018-04-25T00:47:31.440Z,4
2018-04-25T00:48:40.985Z,4
2018-04-25T00:49:50.493Z,4
2018-04-25T00:51:00.490Z,4
2018-04-25T00:52:09.962Z,4
2018-04-25T00:53:19.699Z,4
2018-04-25T00:54:29.440Z,4
2018-04-25T00:55:38.904Z,4
2018-04-25T00:56:48.896Z,4
2018-04-25T00:57:58.712Z,4
2018-04-25T00:59:08.449Z,4
2018-04-25T01:00:17.934Z,4
2018-04-25T01:01:27.929Z,4
2018-04-25T01:02:37.668Z,4
2018-04-25T01:03:47.708Z,4
2018-04-25T01:04:57.713Z,4
2018-04-25T01:06:07.486Z,4
2018-04-25T01:07:17.232Z,4
2018-04-25T01:08:27.232Z,4
2018-04-25T01:09:36.974Z,4
2018-04-25T01:10:46.436Z,4
2018-04-25T01:11:56.733Z,4
2018-04-25T01:13:06.593Z,4
2018-04-25T01:14:16.319Z,4
2018-04-25T01:15:26.048Z,4
2018-04-25T01:16:35.780Z,4
2018-04-25T01:17:45.508Z,4
2018-04-25T01:18:55.520Z,4
2018-04-25T01:20:05.252Z,4
2018-04-25T01:21:15.017Z,4
2018-04-25T01:22:25.024Z,4
2018-04-25T01:23:34.764Z,4
2018-04-25T01:24:44.764Z,4
2018-04-25T01:25:54.241Z,4
2018-04-25T01:27:03.438Z,4
2018-04-25T01:28:12.917Z,4
2018-04-25T01:29:22.375Z,4
2018-04-25T01:30:31.839Z,4
2018-04-25T01:31:41.570Z,4
2018-04-25T01:32:51.088Z,4
2018-04-25T01:34:00.827Z,4
2018-04-25T01:35:10.572Z,4
2018-04-25T01:36:20.294Z,4
2018-04-25T01:37:30.292Z,4
2018-04-25T01:38:39.764Z,4
2018-04-25T01:39:49.491Z,4
2018-04-25T01:40:59.221Z,4
2018-04-25T01:42:08.694Z,4
2018-04-25T01:43:18.158Z,4
2018-04-25T01:44:27.910Z,4
2018-04-25T01:45:37.643Z,4
2018-04-25T01:46:46.847Z,4
2018-04-25T01:47:56.574Z,4
2018-04-25T01:49:05.768Z,4
2018-04-25T01:50:15.224Z,4
2018-04-25T01:51:24.679Z,4
2018-04-25T01:52:34.399Z,4
2018-04-25T01:53:44.126Z,4
2018-04-25T01:54:54.127Z,4
2018-04-25T01:56:03.846Z,4
2018-04-25T01:57:13.838Z,4
2018-04-25T01:58:23.565Z,4
2018-04-25T01:59:33.288Z,4
2018-04-25T02:00:42.895Z,4
2018-04-25T02:01:52.629Z,4
2018-04-25T02:03:02.088Z,4
2018-04-25T02:04:11.547Z,4
2018-04-25T02:05:21.271Z,4
2018-04-25T02:06:30.473Z,4
2018-04-25T02:07:40.465Z,4
2018-04-25T02:08:50.469Z,4
2018-04-25T02:09:59.933Z,4
2018-04-25T02:11:09.671Z,4
2018-04-25T02:12:19.665Z,4
2018-04-25T02:13:29.390Z,4
2018-04-25T02:14:39.388Z,4
2018-04-25T02:15:48.583Z,4
2018-04-25T02:16:58.585Z,4
2018-04-25T02:18:08.382Z,4
2018-04-25T02:19:17.850Z,4
2018-04-25T02:20:27.574Z,4
2018-04-25T02:21:37.584Z,4
2018-04-25T02:22:47.322Z,4
2018-04-25T02:23:57.079Z,4
2018-04-25T02:25:07.098Z,4
2018-04-25T02:26:16.837Z,4
2018-04-25T02:27:26.884Z,4
2018-04-25T02:28:36.648Z,4
2018-04-25T02:29:46.636Z,4
2018-04-25T02:30:56.380Z,4
2018-04-25T02:32:06.443Z,4
2018-04-25T02:33:16.184Z,4
2018-04-25T02:34:25.921Z,4
2018-04-25T02:35:35.127Z,4
2018-04-25T02:36:45.155Z,4
2018-04-25T02:37:54.889Z,4
2018-04-25T02:39:04.626Z,4
2018-04-25T02:40:14.621Z,4
2018-04-25T02:41:24.620Z,4
2018-04-25T02:42:34.359Z,4
2018-04-25T02:43:44.361Z,4
2018-04-25T02:44:54.093Z,4
2018-04-25T02:46:03.029Z,4
2018-04-25T02:47:12.501Z,4
2018-04-25T02:48:22.231Z,4
2018-04-25T02:49:31.689Z,4
2018-04-25T02:50:41.419Z,4
2018-04-25T02:51:51.418Z,4
2018-04-25T02:53:01.156Z,4
2018-04-25T02:54:11.164Z,4
2018-04-25T02:55:21.158Z,4
2018-04-25T02:56:30.641Z,4
2018-04-25T02:57:40.373Z,4
2018-04-25T02:58:50.544Z,4
2018-04-25T03:00:00.625Z,4
2018-04-25T03:01:10.357Z,4
2018-04-25T03:02:19.823Z,4
2018-04-25T03:03:29.280Z,4
2018-04-25T03:04:39.012Z,4
2018-04-25T03:05:48.763Z,4
2018-04-25T03:06:58.522Z,4
2018-04-25T03:08:08.532Z,4
2018-04-25T03:09:17.999Z,4
2018-04-25T03:10:27.742Z,4
2018-04-25T03:11:37.481Z,4
2018-04-25T03:12:47.205Z,4
2018-04-25T03:13:57.220Z,4
2018-04-25T03:15:06.426Z,4
2018-04-25T03:16:16.168Z,4
2018-04-25T03:17:25.918Z,4
2018-04-25T03:18:35.913Z,4
2018-04-25T03:19:45.112Z,4
2018-04-25T03:20:55.176Z,4
2018-04-25T03:22:04.636Z,4
2018-04-25T03:23:14.379Z,4
2018-04-25T03:24:24.371Z,4
2018-04-25T03:25:34.102Z,4
2018-04-25T03:26:43.837Z,4
2018-04-25T03:27:53.299Z,4
2018-04-25T03:29:02.496Z,4
2018-04-25T03:30:12.234Z,4
2018-04-25T03:31:21.703Z,4
2018-04-25T03:32:31.165Z,4
2018-04-25T03:33:41.006Z,4
2018-04-25T03:34:50.249Z,4
2018-04-25T03:35:59.973Z,4
2018-04-25T03:37:09.170Z,4
2018-04-25T03:38:18.895Z,4
2018-04-25T03:39:28.624Z,4
2018-04-25T03:40:37.557Z,4
2018-04-25T03:41:47.552Z,4
2018-04-25T03:42:57.545Z,4
2018-04-25T03:44:07.282Z,4
2018-04-25T03:45:17.289Z,4
2018-04-25T03:46:27.028Z,4
2018-04-25T03:47:36.749Z,4
2018-04-25T03:48:46.517Z,0
2018-04-25T03:49:56.249Z,4
2018-04-25T03:51:05.977Z,4
2018-04-25T03:52:15.435Z,4
2018-04-25T03:53:25.433Z,4
2018-04-25T03:54:35.157Z,8
2018-04-25T03:55:44.363Z,4
2018-04-25T03:56:53.829Z,8
2018-04-25T03:58:03.821Z,8
2018-04-25T03:59:13.313Z,8
2018-04-25T04:00:23.390Z,8
2018-04-25T04:01:33.383Z,8
2018-04-25T04:02:43.117Z,8
2018-04-25T04:03:53.285Z,12
2018-04-25T04:05:03.278Z,12
2018-04-25T04:06:12.737Z,12
2018-04-25T04:07:22.200Z,16
2018-04-25T04:08:31.660Z,16
2018-04-25T04:09:41.425Z,16
2018-04-25T04:10:51.158Z,12
2018-04-25T04:12:00.879Z,16
2018-04-25T04:13:10.718Z,20
2018-04-25T04:14:20.181Z,20
2018-04-25T04:15:29.643Z,16
2018-04-25T04:16:39.365Z,16
2018-04-25T04:17:49.148Z,20
2018-04-25T04:18:58.875Z,24
2018-04-25T04:20:08.872Z,24
2018-04-25T04:21:18.619Z,36
2018-04-25T04:22:28.078Z,40
2018-04-25T04:23:37.811Z,44
2018-04-25T04:24:47.936Z,52
2018-04-25T04:25:57.401Z,60
2018-04-25T04:27:06.599Z,64
2018-04-25T04:28:16.347Z,88
2018-04-25T04:29:26.085Z,96
2018-04-25T04:30:35.287Z,100
2018-04-25T04:31:45.021Z,104
2018-04-25T04:32:54.220Z,116
2018-04-25T04:34:03.685Z,132
2018-04-25T04:35:13.446Z,132
2018-04-25T04:36:23.192Z,160
2018-04-25T04:37:32.941Z,188
2018-04-25T04:38:42.669Z,212
2018-04-25T04:39:52.143Z,232
2018-04-25T04:41:01.605Z,216
2018-04-25T04:42:11.072Z,188
2018-04-25T04:43:21.328Z,156
2018-04-25T04:44:31.099Z,144
2018-04-25T04:45:40.582Z,144
2018-04-25T04:46:50.045Z,132
2018-04-25T04:47:59.768Z,120
2018-04-25T04:49:09.524Z,120
2018-04-25T04:50:19.266Z,112
2018-04-25T04:51:29.257Z,128
2018-04-25T04:52:38.989Z,144
2018-04-25T04:53:48.191Z,128
2018-04-25T04:54:57.932Z,116
2018-04-25T04:56:07.685Z,124
2018-04-25T04:57:17.415Z,144
2018-04-25T04:58:26.632Z,184
2018-04-25T04:59:36.389Z,208
2018-04-25T05:00:45.830Z,208
2018-04-25T05:01:55.564Z,208
2018-04-25T05:03:05.313Z,244
2018-04-25T05:04:15.335Z,264
2018-04-25T05:05:25.081Z,260
2018-04-25T05:06:35.086Z,292
2018-04-25T05:07:44.807Z,348
2018-04-25T05:08:54.642Z,376
2018-04-25T05:10:04.103Z,364
2018-04-25T05:11:13.566Z,376
2018-04-25T05:12:22.495Z,436
2018-04-25T05:13:31.968Z,356
2018-04-25T05:14:41.969Z,300
2018-04-25T05:15:51.695Z,316
2018-04-25T05:17:01.428Z,352
2018-04-25T05:18:10.623Z,300
2018-04-25T05:19:20.352Z,280
2018-04-25T05:20:30.109Z,372
2018-04-25T05:21:39.324Z,436
2018-04-25T05:22:49.325Z,360
2018-04-25T05:23:59.316Z,256
2018-04-25T05:25:08.789Z,176
2018-04-25T05:26:18.529Z,140
2018-04-25T05:27:27.731Z,148
2018-04-25T05:28:36.669Z,176
2018-04-25T05:29:46.404Z,272
2018-04-25T05:30:56.146Z,280
2018-04-25T05:32:05.491Z,300
2018-04-25T05:33:15.223Z,336
2018-04-25T05:34:24.960Z,424
2018-04-25T05:35:34.161Z,540
2018-04-25T05:36:44.160Z,508
2018-04-25T05:37:53.889Z,500
2018-04-25T05:39:03.089Z,620
2018-04-25T05:40:13.099Z,632
2018-04-25T05:41:23.100Z,500
2018-04-25T05:42:33.099Z,452
2018-04-25T05:43:43.088Z,436
2018-04-25T05:44:52.554Z,404
2018-04-25T05:46:02.199Z,444
2018-04-25T05:47:12.533Z,592
2018-04-25T05:48:22.524Z,740
2018-04-25T05:49:32.255Z,856
2018-04-25T05:50:41.989Z,716
2018-04-25T05:51:52.100Z,668
2018-04-25T05:53:02.133Z,640
2018-04-25T05:54:11.875Z,608
2018-04-25T05:55:21.874Z,572
2018-04-25T05:56:31.596Z,636
2018-04-25T05:57:41.058Z,812
2018-04-25T05:58:50.518Z,992
2018-04-25T06:00:00.286Z,1224
2018-04-25T06:01:10.029Z,1056
2018-04-25T06:02:20.169Z,712
2018-04-25T06:03:29.644Z,568
2018-04-25T06:04:39.374Z,548
2018-04-25T06:05:48.844Z,584
2018-04-25T06:06:58.606Z,576
2018-04-25T06:08:08.341Z,636
2018-04-25T06:09:18.062Z,688
2018-04-25T06:10:27.800Z,480
2018-04-25T06:11:37.795Z,368
2018-04-25T06:12:47.786Z,336
2018-04-25T06:13:57.573Z,412
2018-04-25T06:15:07.578Z,500
2018-04-25T06:16:17.708Z,448
2018-04-25T06:17:27.701Z,424
2018-04-25T06:18:37.425Z,472
2018-04-25T06:19:47.039Z,364
2018-04-25T06:20:57.073Z,464
2018-04-25T06:22:06.542Z,580
2018-04-25T06:23:16.000Z,744
2018-04-25T06:24:25.990Z,840
2018-04-25T06:25:35.454Z,824
2018-04-25T06:26:44.653Z,700
2018-04-25T06:27:54.385Z,932
2018-04-25T06:29:04.112Z,764
2018-04-25T06:30:14.116Z,900
2018-04-25T06:31:24.106Z,920
2018-04-25T06:32:33.035Z,1000
2018-04-25T06:33:42.760Z,1028
2018-04-25T06:34:52.487Z,1160
2018-04-25T06:36:02.481Z,1300
2018-04-25T06:37:12.201Z,1352
2018-04-25T06:38:21.924Z,1404
2018-04-25T06:39:32.157Z,1456
2018-04-25T06:40:41.830Z,1480
2018-04-25T06:41:51.566Z,1572
2018-04-25T06:43:01.015Z,1816
2018-04-25T06:44:10.742Z,2084
2018-04-25T06:45:20.468Z,2156
2018-04-25T06:46:30.453Z,2140
2018-04-25T06:47:39.645Z,2340
2018-04-25T06:48:49.649Z,2504
2018-04-25T06:49:59.104Z,2628
2018-04-25T06:51:08.306Z,2792
2018-04-25T06:52:18.034Z,2772
2018-04-25T06:53:27.761Z,2780
2018-04-25T06:54:37.212Z,2812
2018-04-25T06:55:46.932Z,2940
2018-04-25T06:56:56.453Z,3192
2018-04-25T06:58:06.176Z,3504
2018-04-25T06:59:15.640Z,3728
2018-04-25T07:00:25.642Z,3768
2018-04-25T07:01:35.362Z,3492
2018-04-25T07:02:45.362Z,3288
2018-04-25T07:03:54.825Z,3296
2018-04-25T07:05:04.478Z,3296
2018-04-25T07:06:13.941Z,3112
2018-04-25T07:07:23.801Z,3004
2018-04-25T07:08:33.123Z,2876
2018-04-25T07:09:43.486Z,2668
2018-04-25T07:10:53.370Z,2380
2018-04-25T07:12:02.834Z,2400
2018-04-25T07:13:12.398Z,2536
2018-04-25T07:14:21.873Z,2636
2018-04-25T07:15:31.597Z,2852
2018-04-25T07:16:41.604Z,2852
2018-04-25T07:17:51.334Z,3028
2018-04-25T07:19:01.060Z,2684
2018-04-25T07:20:10.826Z,2200
2018-04-25T07:21:20.565Z,1584
2018-04-25T07:22:30.571Z,1756
2018-04-25T07:23:40.596Z,2248
2018-04-25T07:24:50.337Z,2104
2018-04-25T07:25:59.830Z,1972
2018-04-25T07:27:09.366Z,1872
2018-04-25T07:28:18.849Z,2056
2018-04-25T07:29:28.080Z,2540
2018-04-25T07:30:37.704Z,2764
2018-04-25T07:31:47.453Z,2840
2018-04-25T07:32:56.919Z,2756
2018-04-25T07:34:06.422Z,2928
2018-04-25T07:35:15.969Z,3660
2018-04-25T07:36:25.097Z,4260
2018-04-25T07:37:35.094Z,4364
2018-04-25T07:38:45.103Z,3548
2018-04-25T07:39:54.297Z,3452
2018-04-25T07:41:03.504Z,3712
2018-04-25T07:42:13.230Z,4312
2018-04-25T07:43:22.730Z,4440
2018-04-25T07:44:32.753Z,4752
2018-04-25T07:45:42.213Z,4520
2018-04-25T07:46:51.939Z,4256
2018-04-25T07:48:01.939Z,4024
2018-04-25T07:49:12.012Z,3720
2018-04-25T07:50:21.750Z,3516
2018-04-25T07:51:31.764Z,3848
2018-04-25T07:52:41.765Z,3536
2018-04-25T07:53:51.234Z,2700
2018-04-25T07:55:00.740Z,2308
2018-04-25T07:56:10.236Z,2084
2018-04-25T07:57:19.974Z,3152
2018-04-25T07:58:29.434Z,3724
2018-04-25T07:59:39.172Z,3768
2018-04-25T08:00:48.105Z,3484
2018-04-25T08:01:57.621Z,3316
2018-04-25T08:03:07.173Z,2880
2018-04-25T08:04:16.924Z,2936
2018-04-25T08:05:25.872Z,3712
2018-04-25T08:06:35.610Z,4020
2018-04-25T08:07:45.766Z,3432
2018-04-25T08:08:55.580Z,3228
2018-04-25T08:10:05.356Z,2604
2018-04-25T08:11:14.850Z,2188
2018-04-25T08:12:24.856Z,1884
2018-04-25T08:13:34.517Z,2008
2018-04-25T08:14:44.241Z,1672
2018-04-25T08:15:54.196Z,1448
2018-04-25T08:17:03.663Z,1264
2018-04-25T08:18:13.175Z,1240
2018-04-25T08:19:22.903Z,1188
2018-04-25T08:20:32.415Z,1364
2018-04-25T08:21:42.445Z,1480
2018-04-25T08:22:52.189Z,1580
2018-04-25T08:24:01.973Z,2292
2018-04-25T08:25:10.649Z,2368
2018-04-25T08:26:20.392Z,3104
2018-04-25T08:27:30.152Z,3968
2018-04-25T08:28:39.631Z,4220
2018-04-25T08:29:49.386Z,3976
2018-04-25T08:30:58.633Z,3580
2018-04-25T08:32:08.372Z,3648
2018-04-25T08:33:17.572Z,3680
2018-04-25T08:34:27.623Z,3452
2018-04-25T08:35:39.477Z,2704
2018-04-25T08:36:49.494Z,1864
2018-04-25T08:37:58.781Z,1388
2018-04-25T08:39:08.599Z,1288
2018-04-25T08:40:18.150Z,1540
2018-04-25T08:41:27.355Z,2028
2018-04-25T08:42:37.097Z,2320
2018-04-25T08:43:47.029Z,1884
2018-04-25T08:44:57.263Z,1092
2018-04-25T08:46:07.149Z,1320
2018-04-25T08:47:16.615Z,1572
2018-04-25T08:48:26.090Z,1824
2018-04-25T08:49:35.837Z,2104
2018-04-25T08:50:45.051Z,2392
2018-04-25T08:51:55.268Z,2776
2018-04-25T08:53:04.743Z,3252
2018-04-25T08:54:14.728Z,3856
